Time;durP1;ratioP1;P1;durP2;ratioP2;P2;SDS_P1;SDS_P2;PMS_P1;PMS_P2;Temp;Humidity;BMP_temperature;BMP_pressure;BME280_temperature;BME280_humidity;BME280_pressure;Samples;Min_cycle;Max_cycle;Signal;HPM_P1;HPM_P2
2021/10/08 00:01:51;;;;;;;53.60;17.07;;;;;;;;;;5040597;28;20175;-73
2021/10/08 00:04:16;;;;;;;81.57;17.17;;;;;;;;;;5039504;28;20236;-73
2021/10/08 00:06:42;;;;;;;61.10;15.60;;;;;;;;;;5031816;28;20193;-73
2021/10/08 00:09:07;;;;;;;55.10;16.67;;;;;;;;;;5043765;28;20221;-73
2021/10/08 00:11:33;;;;;;;72.47;15.10;;;;;;;;;;5032853;28;20216;-73
2021/10/08 00:13:58;;;;;;;95.13;17.57;;;;;;;;;;5041335;28;20209;-73
2021/10/08 00:16:23;;;;;;;53.03;15.30;;;;;;;;;;5034397;28;20347;-73
2021/10/08 00:18:49;;;;;;;108.30;20.03;;;;;;;;;;5042619;28;20866;-73
2021/10/08 00:21:15;;;;;;;52.13;15.57;;;;;;;;;;5027637;28;20196;-73
2021/10/08 00:23:40;;;;;;;191.30;22.17;;;;;;;;;;5038215;28;20206;-73
2021/10/08 00:26:05;;;;;;;71.80;17.67;;;;;;;;;;5037608;28;20232;-73
2021/10/08 00:28:31;;;;;;;88.20;18.70;;;;;;;;;;5044354;28;20254;-73
2021/10/08 00:30:56;;;;;;;50.87;15.63;;;;;;;;;;5033213;28;20193;-73
2021/10/08 00:33:22;;;;;;;34.50;14.03;;;;;;;;;;5041564;28;20209;-73
2021/10/08 00:35:47;;;;;;;38.63;14.60;;;;;;;;;;5036116;28;20178;-73
2021/10/08 00:38:13;;;;;;;45.80;15.37;;;;;;;;;;5029687;28;20283;-73
2021/10/08 00:40:44;;;;;;;29.20;13.57;;;;;;;;;;5036165;28;20178;-73
2021/10/08 00:43:09;;;;;;;47.53;15.20;;;;;;;;;;5028040;28;20193;-73
2021/10/08 00:45:36;;;;;;;47.60;14.63;;;;;;;;;;5044031;28;20219;-73
2021/10/08 00:48:07;;;;;;;45.13;16.47;;;;;;;;;;5033498;28;20686;-73
2021/10/08 00:50:38;;;;;;;26.20;13.83;;;;;;;;;;5035742;28;20271;-73
2021/10/08 00:53:04;;;;;;;31.00;14.30;;;;;;;;;;5033410;28;20216;-73
2021/10/08 00:55:30;;;;;;;20.93;13.50;;;;;;;;;;5041135;28;20192;-73
2021/10/08 00:57:56;;;;;;;27.60;13.60;;;;;;;;;;5031595;28;20653;-73
2021/10/08 01:00:21;;;;;;;31.40;14.07;;;;;;;;;;5041571;28;20189;-73
2021/10/08 01:02:46;;;;;;;29.20;14.00;;;;;;;;;;5035766;28;20248;-73
2021/10/08 01:05:12;;;;;;;34.77;15.43;;;;;;;;;;5040104;28;20186;-73
2021/10/08 01:07:38;;;;;;;35.50;14.67;;;;;;;;;;5035652;28;20242;-73
2021/10/08 01:10:06;;;;;;;27.77;13.13;;;;;;;;;;5039770;28;20582;-73
2021/10/08 01:12:35;;;;;;;34.77;14.70;;;;;;;;;;5044827;28;20344;-73
2021/10/08 01:15:02;;;;;;;71.07;16.67;;;;;;;;;;5034268;28;20605;-73
2021/10/08 01:17:27;;;;;;;103.67;18.80;;;;;;;;;;5041342;28;20177;-73
2021/10/08 01:19:53;;;;;;;74.53;16.60;;;;;;;;;;5031696;28;20561;-73
2021/10/08 01:22:18;;;;;;;104.43;16.30;;;;;;;;;;5043195;28;20174;-73
2021/10/08 01:24:44;;;;;;;105.90;19.87;;;;;;;;;;5035433;28;20194;-73
2021/10/08 01:27:10;;;;;;;120.73;18.63;;;;;;;;;;5038438;28;20181;-73
2021/10/08 01:29:48;;;;;;;128.07;18.40;;;;;;;;;;5034209;28;20247;-73
2021/10/08 01:32:14;;;;;;;135.40;19.70;;;;;;;;;;5040738;28;20230;-73
2021/10/08 01:34:39;;;;;;;62.73;15.60;;;;;;;;;;5033036;28;20279;-73
2021/10/08 01:37:05;;;;;;;53.73;15.43;;;;;;;;;;5033397;28;20190;-73
2021/10/08 01:39:30;;;;;;;49.27;14.57;;;;;;;;;;5028937;28;20265;-73
2021/10/08 01:41:55;;;;;;;42.30;13.93;;;;;;;;;;5039303;28;20189;-73
2021/10/08 01:44:21;;;;;;;53.07;14.00;;;;;;;;;;5040356;28;20186;-73
2021/10/08 01:46:49;;;;;;;49.63;14.00;;;;;;;;;;5039577;28;20486;-73
2021/10/08 01:49:14;;;;;;;39.47;14.40;;;;;;;;;;5041500;28;20240;-73
2021/10/08 01:51:40;;;;;;;27.57;12.87;;;;;;;;;;5038646;28;20638;-73
2021/10/08 01:54:05;;;;;;;34.63;12.97;;;;;;;;;;5043437;28;20224;-73
2021/10/08 01:56:31;;;;;;;44.90;13.40;;;;;;;;;;5035782;28;20260;-73
2021/10/08 01:58:56;;;;;;;51.93;13.57;;;;;;;;;;5039477;28;20186;-73
2021/10/08 02:01:21;;;;;;;30.13;13.10;;;;;;;;;;5030311;28;20181;-72
2021/10/08 02:03:47;;;;;;;30.40;13.47;;;;;;;;;;5043357;28;20189;-72
2021/10/08 02:06:13;;;;;;;38.70;13.07;;;;;;;;;;5037384;28;20177;-72
2021/10/08 02:08:38;;;;;;;32.23;13.60;;;;;;;;;;5042929;28;20554;-72
2021/10/08 02:11:03;;;;;;;31.60;13.33;;;;;;;;;;5036718;28;20220;-73
2021/10/08 02:13:29;;;;;;;33.07;13.13;;;;;;;;;;5047957;28;20584;-72
2021/10/08 02:15:54;;;;;;;74.77;16.80;;;;;;;;;;5037654;28;20343;-72
2021/10/08 02:18:20;;;;;;;26.13;13.13;;;;;;;;;;5035744;28;20281;-73
2021/10/08 02:20:45;;;;;;;45.67;12.73;;;;;;;;;;5047257;28;20181;-72
2021/10/08 02:23:10;;;;;;;46.27;14.10;;;;;;;;;;5035521;28;20185;-71
2021/10/08 02:25:36;;;;;;;31.00;13.07;;;;;;;;;;5045943;28;20283;-71
2021/10/08 02:28:02;;;;;;;20.43;12.50;;;;;;;;;;5038450;28;20286;-71
2021/10/08 02:30:27;;;;;;;22.33;12.67;;;;;;;;;;5044323;28;21740;-71
2021/10/08 02:32:53;;;;;;;18.47;11.07;;;;;;;;;;5035808;28;20216;-71
2021/10/08 02:35:18;;;;;;;28.17;12.60;;;;;;;;;;5044828;28;20186;-72
2021/10/08 02:37:43;;;;;;;21.13;12.27;;;;;;;;;;5032150;28;20265;-72
2021/10/08 02:40:09;;;;;;;18.03;12.83;;;;;;;;;;5040854;28;20248;-72
2021/10/08 02:42:35;;;;;;;22.57;12.97;;;;;;;;;;5038399;28;20209;-72
2021/10/08 02:45:00;;;;;;;19.20;12.00;;;;;;;;;;5042503;28;20204;-72
2021/10/08 02:47:26;;;;;;;23.07;12.47;;;;;;;;;;5035105;28;20675;-72
2021/10/08 02:49:51;;;;;;;19.27;11.87;;;;;;;;;;5031437;28;20204;-72
2021/10/08 02:52:16;;;;;;;20.33;13.53;;;;;;;;;;5048043;28;20288;-72
2021/10/08 02:54:42;;;;;;;19.23;12.07;;;;;;;;;;5031991;28;20239;-72
2021/10/08 02:57:07;;;;;;;25.33;13.30;;;;;;;;;;5041884;28;20669;-72
2021/10/08 02:59:32;;;;;;;30.43;11.97;;;;;;;;;;5035690;28;20190;-72
2021/10/08 03:01:58;;;;;;;24.03;13.63;;;;;;;;;;5036814;28;20261;-72
2021/10/08 03:04:23;;;;;;;25.73;12.70;;;;;;;;;;5033218;28;20665;-72
2021/10/08 03:06:49;;;;;;;74.07;15.03;;;;;;;;;;5046049;28;21064;-72
2021/10/08 03:09:14;;;;;;;19.73;11.97;;;;;;;;;;5036425;28;20225;-72
2021/10/08 03:11:39;;;;;;;22.33;12.20;;;;;;;;;;5046851;28;20219;-72
2021/10/08 03:14:05;;;;;;;36.70;13.13;;;;;;;;;;5033523;28;20659;-72
2021/10/08 03:16:30;;;;;;;20.60;12.33;;;;;;;;;;5048591;28;20207;-72
2021/10/08 03:18:56;;;;;;;28.60;13.27;;;;;;;;;;5039915;28;20212;-72
2021/10/08 03:21:21;;;;;;;21.67;12.53;;;;;;;;;;5032893;28;20202;-72
2021/10/08 03:23:47;;;;;;;17.43;12.07;;;;;;;;;;5044242;28;20197;-73
2021/10/08 03:26:12;;;;;;;21.87;12.10;;;;;;;;;;5031132;28;20221;-72
2021/10/08 03:28:37;;;;;;;20.93;11.97;;;;;;;;;;5038066;28;20551;-73
2021/10/08 03:31:03;;;;;;;19.17;12.10;;;;;;;;;;5031094;28;20185;-73
2021/10/08 03:33:29;;;;;;;18.07;11.80;;;;;;;;;;5036882;28;20217;-73
2021/10/08 03:35:54;;;;;;;26.53;11.80;;;;;;;;;;5025826;28;20190;-73
2021/10/08 03:38:20;;;;;;;49.93;13.23;;;;;;;;;;5037246;28;20189;-73
2021/10/08 03:43:30;;;;;;;42.03;12.70;;;;;;;;;;5034767;28;20672;-73
2021/10/08 03:46:00;;;;;;;57.20;14.60;;;;;;;;;;5034349;28;20189;-73
2021/10/08 03:51:03;;;;;;;81.23;15.00;;;;;;;;;;5032337;28;20277;-73
2021/10/08 03:53:29;;;;;;;65.40;13.53;;;;;;;;;;5034721;28;20209;-73
2021/10/08 03:55:54;;;;;;;61.00;14.17;;;;;;;;;;5037314;28;20201;-73
2021/10/08 03:58:20;;;;;;;71.20;14.27;;;;;;;;;;5037260;28;20213;-72
2021/10/08 04:00:45;;;;;;;58.33;12.93;;;;;;;;;;5039643;28;20200;-72
2021/10/08 04:03:11;;;;;;;34.57;12.50;;;;;;;;;;5028870;28;20192;-73
2021/10/08 04:05:36;;;;;;;64.50;13.77;;;;;;;;;;5038661;28;20542;-73
2021/10/08 04:08:02;;;;;;;97.03;15.00;;;;;;;;;;5032113;28;20228;-73
2021/10/08 04:10:27;;;;;;;66.70;13.40;;;;;;;;;;5039572;28;20308;-73
2021/10/08 04:12:53;;;;;;;64.77;13.90;;;;;;;;;;5032830;28;20212;-73
2021/10/08 04:15:18;;;;;;;28.63;12.43;;;;;;;;;;5039649;28;20330;-72
2021/10/08 04:17:43;;;;;;;51.00;13.80;;;;;;;;;;5030748;28;20674;-72
2021/10/08 04:20:09;;;;;;;74.57;13.87;;;;;;;;;;5036566;28;20968;-72
2021/10/08 04:22:35;;;;;;;47.13;12.77;;;;;;;;;;5029127;28;20524;-73
2021/10/08 04:25:00;;;;;;;68.17;13.83;;;;;;;;;;5037232;28;20182;-72
2021/10/08 04:27:25;;;;;;;48.13;13.83;;;;;;;;;;5035747;28;20872;-73
2021/10/08 04:29:51;;;;;;;35.90;12.73;;;;;;;;;;5027579;28;20314;-72
2021/10/08 04:32:16;;;;;;;29.27;12.27;;;;;;;;;;5036481;28;20699;-72
2021/10/08 04:34:41;;;;;;;30.00;12.33;;;;;;;;;;5029495;28;20190;-72
2021/10/08 04:37:07;;;;;;;29.33;11.93;;;;;;;;;;5035914;28;20228;-73
2021/10/08 04:39:32;;;;;;;32.53;12.07;;;;;;;;;;5031797;28;20258;-73
2021/10/08 04:41:57;;;;;;;44.17;13.83;;;;;;;;;;5035065;28;20609;-73
2021/10/08 04:44:23;;;;;;;30.33;13.00;;;;;;;;;;5033501;28;20203;-73
2021/10/08 04:46:48;;;;;;;26.93;13.10;;;;;;;;;;5042361;28;20593;-73
2021/10/08 04:49:13;;;;;;;49.73;14.13;;;;;;;;;;5033099;28;20192;-72
2021/10/08 04:51:39;;;;;;;31.97;13.43;;;;;;;;;;5042399;28;20668;-73
2021/10/08 04:54:04;;;;;;;62.33;13.80;;;;;;;;;;5041190;28;20290;-73
2021/10/08 04:56:33;;;;;;;39.53;13.97;;;;;;;;;;5033881;28;20239;-73
2021/10/08 04:58:59;;;;;;;30.57;12.93;;;;;;;;;;5044173;28;20201;-73
2021/10/08 05:01:26;;;;;;;86.43;13.57;;;;;;;;;;5022236;28;20295;-73
2021/10/08 05:03:51;;;;;;;79.50;15.10;;;;;;;;;;5038454;28;20638;-73
2021/10/08 05:06:16;;;;;;;54.33;13.10;;;;;;;;;;5030528;28;20197;-73
2021/10/08 05:08:42;;;;;;;61.27;17.80;;;;;;;;;;5039432;28;20298;-73
2021/10/08 05:11:07;;;;;;;50.47;14.43;;;;;;;;;;5031354;28;20307;-73
2021/10/08 05:13:32;;;;;;;33.83;13.43;;;;;;;;;;5043781;28;20200;-72
2021/10/08 05:15:58;;;;;;;35.00;14.23;;;;;;;;;;5028405;28;20197;-72
2021/10/08 05:18:24;;;;;;;38.73;13.67;;;;;;;;;;5036287;28;20220;-72
2021/10/08 05:20:49;;;;;;;24.53;12.83;;;;;;;;;;5030508;28;21288;-72
2021/10/08 05:23:14;;;;;;;58.83;14.20;;;;;;;;;;5039234;28;20203;-73
2021/10/08 05:25:39;;;;;;;38.93;14.13;;;;;;;;;;5037883;28;20189;-74
2021/10/08 05:28:05;;;;;;;37.30;14.53;;;;;;;;;;5036111;28;20184;-72
2021/10/08 05:30:30;;;;;;;37.57;13.63;;;;;;;;;;5043601;28;20194;-72
2021/10/08 05:32:56;;;;;;;40.17;14.37;;;;;;;;;;5032163;28;20239;-72
2021/10/08 05:35:21;;;;;;;28.47;13.60;;;;;;;;;;5045810;28;20671;-73
2021/10/08 05:37:46;;;;;;;24.03;14.53;;;;;;;;;;5037593;28;20182;-74
2021/10/08 05:40:12;;;;;;;28.97;14.53;;;;;;;;;;5041231;28;20633;-73
2021/10/08 05:42:37;;;;;;;21.93;13.40;;;;;;;;;;5034242;28;20629;-73
2021/10/08 05:45:03;;;;;;;36.43;14.47;;;;;;;;;;5042655;28;20589;-72
2021/10/08 05:47:29;;;;;;;31.23;14.53;;;;;;;;;;5034386;28;20275;-72
2021/10/08 05:49:55;;;;;;;23.40;13.47;;;;;;;;;;5043168;28;20281;-73
2021/10/08 05:52:20;;;;;;;25.07;13.80;;;;;;;;;;5032434;28;20209;-72
2021/10/08 05:54:46;;;;;;;27.40;13.37;;;;;;;;;;5039234;28;20561;-72
2021/10/08 05:57:11;;;;;;;40.60;14.67;;;;;;;;;;5040955;28;20570;-72
2021/10/08 05:59:37;;;;;;;38.77;15.53;;;;;;;;;;5036174;28;20208;-72
2021/10/08 06:02:03;;;;;;;56.53;16.77;;;;;;;;;;5041295;28;20193;-71
2021/10/08 06:04:28;;;;;;;36.73;14.33;;;;;;;;;;5032208;28;20243;-72
2021/10/08 06:06:53;;;;;;;37.77;15.03;;;;;;;;;;5038804;28;20190;-71
2021/10/08 06:09:19;;;;;;;33.53;13.63;;;;;;;;;;5030022;28;20229;-72
2021/10/08 06:11:45;;;;;;;29.90;13.00;;;;;;;;;;5039216;28;20202;-72
2021/10/08 06:14:10;;;;;;;21.53;12.37;;;;;;;;;;5030235;28;20220;-72
2021/10/08 06:16:35;;;;;;;25.60;13.60;;;;;;;;;;5038370;28;20239;-72
2021/10/08 06:19:01;;;;;;;27.73;14.47;;;;;;;;;;5033596;28;20534;-72
2021/10/08 06:21:27;;;;;;;32.70;14.57;;;;;;;;;;5041856;28;20189;-72
2021/10/08 06:23:53;;;;;;;36.83;14.27;;;;;;;;;;5039804;28;20333;-72
2021/10/08 06:26:18;;;;;;;61.37;15.67;;;;;;;;;;5032895;28;20304;-72
2021/10/08 06:28:43;;;;;;;50.77;14.40;;;;;;;;;;5041462;28;20185;-72
2021/10/08 06:31:09;;;;;;;51.63;14.40;;;;;;;;;;5032064;28;20201;-73
2021/10/08 06:33:34;;;;;;;40.97;14.77;;;;;;;;;;5035074;28;20404;-73
2021/10/08 06:35:59;;;;;;;26.57;13.80;;;;;;;;;;5027429;28;20212;-73
2021/10/08 06:38:25;;;;;;;32.30;14.10;;;;;;;;;;5031647;28;20353;-72
2021/10/08 06:40:50;;;;;;;55.53;15.93;;;;;;;;;;5026154;28;20643;-72
2021/10/08 06:43:16;;;;;;;38.03;14.53;;;;;;;;;;5038077;28;20185;-72
2021/10/08 06:45:41;;;;;;;32.43;14.50;;;;;;;;;;5031843;28;20189;-72
2021/10/08 06:48:06;;;;;;;31.73;14.53;;;;;;;;;;5041000;28;20257;-73
2021/10/08 06:50:32;;;;;;;38.90;16.27;;;;;;;;;;5029021;28;20191;-73
2021/10/08 06:52:57;;;;;;;31.33;16.73;;;;;;;;;;5034485;28;20205;-73
2021/10/08 06:55:23;;;;;;;32.20;15.17;;;;;;;;;;5037096;28;20327;-72
2021/10/08 06:57:48;;;;;;;37.77;17.77;;;;;;;;;;5038046;28;20620;-72
2021/10/08 07:00:14;;;;;;;34.07;16.13;;;;;;;;;;5037264;28;20603;-72
2021/10/08 07:02:53;;;;;;;36.57;17.73;;;;;;;;;;5030832;28;20185;-72
2021/10/08 07:05:20;;;;;;;34.13;16.27;;;;;;;;;;5039629;28;20612;-72
2021/10/08 07:07:46;;;;;;;35.60;16.37;;;;;;;;;;5030813;28;20201;-72
2021/10/08 07:10:12;;;;;;;33.03;17.60;;;;;;;;;;5038370;28;20285;-72
2021/10/08 07:12:38;;;;;;;39.07;17.70;;;;;;;;;;5036336;28;20217;-72
2021/10/08 07:15:06;;;;;;;35.57;18.67;;;;;;;;;;5037798;28;20209;-72
2021/10/08 07:17:32;;;;;;;33.70;18.90;;;;;;;;;;5033981;28;20542;-72
2021/10/08 07:19:57;;;;;;;40.90;19.43;;;;;;;;;;5039370;28;20189;-72
2021/10/08 07:22:23;;;;;;;40.50;19.93;;;;;;;;;;5029016;28;20605;-72
2021/10/08 07:24:49;;;;;;;38.50;20.53;;;;;;;;;;5037323;28;20663;-72
2021/10/08 07:27:17;;;;;;;48.53;21.10;;;;;;;;;;5036265;28;21616;-72
2021/10/08 07:29:43;;;;;;;40.93;21.00;;;;;;;;;;5043773;28;20193;-72
2021/10/08 07:32:08;;;;;;;46.50;22.87;;;;;;;;;;5042605;28;20303;-73
2021/10/08 07:34:34;;;;;;;50.33;23.67;;;;;;;;;;5035964;28;20658;-73
2021/10/08 07:37:00;;;;;;;48.20;25.07;;;;;;;;;;5041361;28;20204;-71
2021/10/08 07:39:25;;;;;;;52.93;24.17;;;;;;;;;;5027932;28;20190;-71
2021/10/08 07:41:50;;;;;;;55.27;24.77;;;;;;;;;;5045383;28;20224;-72
2021/10/08 07:44:16;;;;;;;54.90;25.87;;;;;;;;;;5032279;28;20205;-72
2021/10/08 07:46:41;;;;;;;58.00;26.60;;;;;;;;;;5036880;28;20596;-72
2021/10/08 07:49:07;;;;;;;53.53;26.07;;;;;;;;;;5037322;28;20193;-72
2021/10/08 07:51:32;;;;;;;63.63;28.30;;;;;;;;;;5040442;28;20897;-72
2021/10/08 07:53:58;;;;;;;60.23;28.00;;;;;;;;;;5030061;28;20267;-72
2021/10/08 07:56:24;;;;;;;59.13;28.17;;;;;;;;;;5039470;28;20208;-72
2021/10/08 07:58:49;;;;;;;61.00;28.27;;;;;;;;;;5030580;28;20352;-72
2021/10/08 08:01:14;;;;;;;62.60;28.80;;;;;;;;;;5035868;28;20268;-72
2021/10/08 08:03:40;;;;;;;66.10;31.97;;;;;;;;;;5038502;28;20178;-72
2021/10/08 08:06:05;;;;;;;61.20;30.00;;;;;;;;;;5037892;28;20194;-73
2021/10/08 08:08:31;;;;;;;67.37;31.07;;;;;;;;;;5038495;28;20181;-73
2021/10/08 08:10:56;;;;;;;66.83;31.57;;;;;;;;;;5030848;28;20832;-72
2021/10/08 08:13:22;;;;;;;69.47;31.47;;;;;;;;;;5040344;28;20206;-72
2021/10/08 08:15:47;;;;;;;71.37;32.83;;;;;;;;;;5026569;28;20560;-72
2021/10/08 08:18:13;;;;;;;74.80;33.33;;;;;;;;;;5040110;28;20208;-72
2021/10/08 08:20:38;;;;;;;73.57;34.57;;;;;;;;;;5027675;28;20185;-72
2021/10/08 08:23:04;;;;;;;76.37;34.90;;;;;;;;;;5041425;28;20169;-72
2021/10/08 08:25:29;;;;;;;73.53;34.40;;;;;;;;;;5030050;28;20181;-72
2021/10/08 08:27:54;;;;;;;67.40;33.00;;;;;;;;;;5038385;28;20186;-72
2021/10/08 08:30:20;;;;;;;80.50;32.50;;;;;;;;;;5027061;28;20185;-72
2021/10/08 08:32:45;;;;;;;88.77;33.83;;;;;;;;;;5035774;28;20275;-73
2021/10/08 08:35:11;;;;;;;76.50;32.43;;;;;;;;;;5031892;28;20858;-73
2021/10/08 08:37:37;;;;;;;66.33;30.07;;;;;;;;;;5028978;28;20221;-72
2021/10/08 08:40:06;;;;;;;92.67;31.77;;;;;;;;;;5036047;28;20665;-72
2021/10/08 08:42:31;;;;;;;66.80;30.75;;;;;;;;;;5033581;28;20193;-72
2021/10/08 08:44:57;;;;;;;134.20;31.37;;;;;;;;;;5041438;28;20193;-72
2021/10/08 08:47:22;;;;;;;105.65;32.38;;;;;;;;;;5027164;28;20282;-73
2021/10/08 08:49:50;;;;;;;65.73;30.00;;;;;;;;;;5044075;28;20193;-73
2021/10/08 08:52:18;;;;;;;54.27;28.37;;;;;;;;;;5027308;28;20213;-73
2021/10/08 08:54:44;;;;;;;56.90;30.17;;;;;;;;;;5036828;28;20285;-73
2021/10/08 08:57:14;;;;;;;53.63;29.67;;;;;;;;;;5030025;28;20220;-73
2021/10/08 09:00:06;;;;;;;51.50;28.48;;;;;;;;;;5039276;28;20307;-73
2021/10/08 09:02:33;;;;;;;52.97;29.05;;;;;;;;;;5033301;28;20189;-73
2021/10/08 09:04:59;;;;;;;55.50;29.50;;;;;;;;;;5041982;28;20201;-73
2021/10/08 09:07:34;;;;;;;55.95;30.23;;;;;;;;;;5030377;28;20212;-73
2021/10/08 09:10:18;;;;;;;56.90;30.73;;;;;;;;;;5039111;28;20225;-73
2021/10/08 09:12:45;;;;;;;60.58;30.52;;;;;;;;;;5031688;28;20293;-73
2021/10/08 09:15:12;;;;;;;60.80;30.80;;;;;;;;;;5037180;28;20185;-73
2021/10/08 09:17:37;;;;;;;61.67;32.15;;;;;;;;;;5035397;28;20761;-73
2021/10/08 09:20:08;;;;;;;54.65;29.83;;;;;;;;;;5040617;28;20189;-73
2021/10/08 09:22:36;;;;;;;51.42;27.75;;;;;;;;;;5045294;28;20648;-73
2021/10/08 09:25:14;;;;;;;52.67;27.60;;;;;;;;;;5031391;28;20280;-73
2021/10/08 09:27:42;;;;;;;53.10;28.73;;;;;;;;;;5044374;28;20197;-73
2021/10/08 09:30:08;;;;;;;53.22;29.25;;;;;;;;;;5030806;28;20280;-73
2021/10/08 09:32:45;;;;;;;57.78;31.38;;;;;;;;;;5044227;28;20292;-73
2021/10/08 09:35:12;;;;;;;49.45;29.63;;;;;;;;;;5032870;28;20181;-74
2021/10/08 09:37:38;;;;;;;45.22;27.45;;;;;;;;;;5044955;28;20189;-74
2021/10/08 09:40:20;;;;;;;48.30;27.50;;;;;;;;;;5034524;28;20281;-74
2021/10/08 09:42:45;;;;;;;44.88;26.30;;;;;;;;;;5034780;28;20189;-74
2021/10/08 09:45:10;;;;;;;46.65;26.63;;;;;;;;;;5033364;28;20197;-74
2021/10/08 09:47:36;;;;;;;43.45;26.63;;;;;;;;;;5028235;28;20204;-74
2021/10/08 09:50:12;;;;;;;39.88;25.67;;;;;;;;;;5030955;28;20213;-73
2021/10/08 09:52:39;;;;;;;47.20;27.00;;;;;;;;;;5040000;28;20205;-73
2021/10/08 09:55:08;;;;;;;42.92;26.42;;;;;;;;;;5031699;28;20259;-73
2021/10/08 09:57:54;;;;;;;42.17;26.35;;;;;;;;;;5043810;28;20205;-73
2021/10/08 10:00:42;;;;;;;40.70;25.13;;;;;;;;;;5034556;28;20259;-73
2021/10/08 10:03:10;;;;;;;36.50;25.10;;;;;;;;;;5036329;28;20610;-73
2021/10/08 10:05:36;;;;;;;41.10;24.60;;;;;;;;;;5034294;28;20217;-74
2021/10/08 10:08:02;;;;;;;31.48;21.80;;;;;;;;;;5044955;28;20194;-74
2021/10/08 10:10:28;;;;;;;31.25;20.98;;;;;;;;;;5034039;28;20222;-73
2021/10/08 10:12:55;;;;;;;29.58;19.88;;;;;;;;;;5039623;28;20245;-73
2021/10/08 10:15:21;;;;;;;26.15;19.85;;;;;;;;;;5044919;28;20583;-73
2021/10/08 10:17:47;;;;;;;28.15;19.70;;;;;;;;;;5034810;28;20273;-73
2021/10/08 10:20:14;;;;;;;25.95;17.85;;;;;;;;;;5045977;28;20221;-73
2021/10/08 10:22:41;;;;;;;23.92;17.73;;;;;;;;;;5033998;28;20180;-73
2021/10/08 10:25:09;;;;;;;22.38;16.00;;;;;;;;;;5049266;28;20461;-73
2021/10/08 10:27:35;;;;;;;21.23;14.60;;;;;;;;;;5034359;28;20189;-74
2021/10/08 10:30:01;;;;;;;18.48;13.43;;;;;;;;;;5040872;28;20181;-74
2021/10/08 10:32:26;;;;;;;18.67;12.80;;;;;;;;;;5032634;28;20708;-73
2021/10/08 10:34:52;;;;;;;16.52;12.00;;;;;;;;;;5043945;28;20209;-73
2021/10/08 10:37:42;;;;;;;15.35;11.70;;;;;;;;;;5033721;28;20193;-73
2021/10/08 10:40:22;;;;;;;17.33;12.70;;;;;;;;;;5041412;28;20284;-74
2021/10/08 10:43:29;;;;;;;14.82;12.60;;;;;;;;;;5039670;28;20192;-73
2021/10/08 10:46:20;;;;;;;15.18;11.32;;;;;;;;;;5040583;28;20185;-74
2021/10/08 10:49:18;;;;;;;15.82;12.77;;;;;;;;;;5033707;28;20186;-74
2021/10/08 10:51:55;;;;;;;17.40;12.95;;;;;;;;;;5044192;28;20193;-74
2021/10/08 10:54:41;;;;;;;14.35;11.68;;;;;;;;;;5036965;28;20189;-73
2021/10/08 10:57:32;;;;;;;13.50;10.77;;;;;;;;;;5042243;28;20657;-72
2021/10/08 11:00:20;;;;;;;15.38;10.02;;;;;;;;;;5033220;28;20194;-72
2021/10/08 11:02:47;;;;;;;15.55;11.05;;;;;;;;;;5035229;28;20174;-73
2021/10/08 11:05:23;;;;;;;14.55;11.63;;;;;;;;;;5033333;28;20181;-72
2021/10/08 11:08:09;;;;;;;12.65;10.77;;;;;;;;;;5048321;28;20216;-73
2021/10/08 11:10:36;;;;;;;13.30;8.82;;;;;;;;;;5040004;28;20240;-73
2021/10/08 11:13:20;;;;;;;11.40;8.70;;;;;;;;;;5039401;28;20198;-73
2021/10/08 11:15:53;;;;;;;13.30;8.40;;;;;;;;;;5030356;28;20581;-73
2021/10/08 11:18:39;;;;;;;13.52;8.27;;;;;;;;;;5038919;28;20246;-73
2021/10/08 11:21:05;;;;;;;12.93;8.52;;;;;;;;;;5029834;28;20185;-73
2021/10/08 11:23:33;;;;;;;12.13;8.40;;;;;;;;;;5038902;28;20236;-73
2021/10/08 11:26:11;;;;;;;10.35;8.23;;;;;;;;;;5035633;28;20298;-74
2021/10/08 11:28:45;;;;;;;9.45;7.38;;;;;;;;;;5038249;28;20177;-75
2021/10/08 11:31:14;;;;;;;12.73;9.27;;;;;;;;;;5028984;28;20185;-74
2021/10/08 11:33:43;;;;;;;12.90;9.65;;;;;;;;;;5040816;28;20197;-73
2021/10/08 11:36:21;;;;;;;10.52;8.65;;;;;;;;;;5027701;28;20620;-74
2021/10/08 11:38:49;;;;;;;9.77;8.70;;;;;;;;;;5037796;28;20499;-74
2021/10/08 11:41:23;;;;;;;10.75;8.93;;;;;;;;;;5030906;28;20193;-73
2021/10/08 11:44:02;;;;;;;10.85;9.18;;;;;;;;;;5037229;28;20262;-73
2021/10/08 11:51:57;;;;;;;15.77;10.27;;;;;;;;;;5031901;28;20213;-74
2021/10/08 11:54:23;;;;;;;13.25;10.65;;;;;;;;;;5044311;28;20182;-74
2021/10/08 11:57:02;;;;;;;13.23;9.60;;;;;;;;;;5034804;28;20232;-74
2021/10/08 11:59:28;;;;;;;14.38;11.18;;;;;;;;;;5041814;28;20205;-74
2021/10/08 12:02:12;;;;;;;11.85;10.57;;;;;;;;;;5034632;28;20255;-75
2021/10/08 12:04:38;;;;;;;12.10;10.10;;;;;;;;;;5044148;28;20254;-75
2021/10/08 12:07:08;;;;;;;12.40;10.43;;;;;;;;;;5033519;28;20654;-75
2021/10/08 12:09:33;;;;;;;12.25;10.63;;;;;;;;;;5044528;28;20589;-74
2021/10/08 12:12:09;;;;;;;13.25;9.50;;;;;;;;;;5035095;28;20205;-75
2021/10/08 12:14:41;;;;;;;13.13;10.80;;;;;;;;;;5036410;28;20185;-74
2021/10/08 12:17:07;;;;;;;12.65;10.63;;;;;;;;;;5034219;28;20197;-74
2021/10/08 12:19:32;;;;;;;13.05;11.30;;;;;;;;;;5038850;28;20271;-74
2021/10/08 12:21:57;;;;;;;14.55;11.45;;;;;;;;;;5031670;28;20250;-75
2021/10/08 12:24:23;;;;;;;14.13;11.80;;;;;;;;;;5037085;28;20752;-74
2021/10/08 12:26:52;;;;;;;14.55;11.93;;;;;;;;;;5038446;28;20213;-76
2021/10/08 12:29:18;;;;;;;13.80;11.45;;;;;;;;;;5030120;28;20189;-75
2021/10/08 12:31:48;;;;;;;16.60;11.93;;;;;;;;;;5039600;28;20525;-76
2021/10/08 12:34:32;;;;;;;15.88;11.57;;;;;;;;;;5032412;28;20189;-76
2021/10/08 12:36:58;;;;;;;11.25;10.05;;;;;;;;;;5039383;28;20174;-76
2021/10/08 12:39:24;;;;;;;14.95;10.00;;;;;;;;;;5029004;28;20182;-76
2021/10/08 12:41:58;;;;;;;13.23;9.77;;;;;;;;;;5036244;28;20197;-76
2021/10/08 12:44:26;;;;;;;13.77;10.07;;;;;;;;;;5033513;28;20224;-76
2021/10/08 12:47:08;;;;;;;12.48;10.05;;;;;;;;;;5035590;28;20198;-74
2021/10/08 12:49:50;;;;;;;12.88;9.70;;;;;;;;;;5030763;28;20295;-75
2021/10/08 12:52:29;;;;;;;11.07;9.32;;;;;;;;;;5038313;28;20296;-75
2021/10/08 12:55:04;;;;;;;9.10;7.85;;;;;;;;;;5031522;28;20993;-75
2021/10/08 12:57:29;;;;;;;10.23;8.43;;;;;;;;;;5035359;28;20219;-75
2021/10/08 12:59:57;;;;;;;9.18;8.07;;;;;;;;;;5027583;28;20221;-75
2021/10/08 13:02:40;;;;;;;12.05;7.93;;;;;;;;;;5039174;28;20205;-75
2021/10/08 13:05:07;;;;;;;10.32;8.52;;;;;;;;;;5029505;28;20205;-75
2021/10/08 13:07:32;;;;;;;8.88;7.97;;;;;;;;;;5037964;28;20181;-75
2021/10/08 13:10:24;;;;;;;8.85;7.95;;;;;;;;;;5028070;28;20229;-75
2021/10/08 13:12:49;;;;;;;9.27;7.85;;;;;;;;;;5037185;28;20228;-75
2021/10/08 13:15:27;;;;;;;9.45;7.18;;;;;;;;;;5025595;28;20174;-74
2021/10/08 13:18:14;;;;;;;11.70;7.15;;;;;;;;;;5040151;28;20264;-75
2021/10/08 13:20:41;;;;;;;8.10;6.80;;;;;;;;;;5030879;28;20289;-75
2021/10/08 13:23:08;;;;;;;11.35;7.55;;;;;;;;;;5039318;28;20227;-75
2021/10/08 13:25:37;;;;;;;9.63;6.70;;;;;;;;;;5030272;28;20189;-75
2021/10/08 13:28:02;;;;;;;10.52;7.50;;;;;;;;;;5042509;28;20281;-75
2021/10/08 13:30:28;;;;;;;9.20;6.82;;;;;;;;;;5041163;28;20660;-75
2021/10/08 13:32:53;;;;;;;8.27;6.70;;;;;;;;;;5031152;28;20213;-75
2021/10/08 13:35:18;;;;;;;9.05;5.93;;;;;;;;;;5035241;28;20201;-75
2021/10/08 13:37:44;;;;;;;9.63;6.43;;;;;;;;;;5034536;28;20267;-75
2021/10/08 13:40:10;;;;;;;7.70;6.88;;;;;;;;;;5043429;28;20178;-75
2021/10/08 13:42:35;;;;;;;7.28;6.40;;;;;;;;;;5033996;28;20280;-76
2021/10/08 13:45:01;;;;;;;6.53;5.85;;;;;;;;;;5042031;28;20284;-74
2021/10/08 13:47:26;;;;;;;8.57;6.05;;;;;;;;;;5040362;28;20216;-74
2021/10/08 13:49:51;;;;;;;7.70;6.60;;;;;;;;;;5042751;28;20473;-75
2021/10/08 13:52:17;;;;;;;8.07;6.95;;;;;;;;;;5040749;28;20475;-74
2021/10/08 13:54:42;;;;;;;8.77;6.75;;;;;;;;;;5041665;28;20242;-74
2021/10/08 13:57:07;;;;;;;8.30;7.03;;;;;;;;;;5043026;28;20212;-74
2021/10/08 13:59:33;;;;;;;9.57;6.88;;;;;;;;;;5045281;28;20215;-74
2021/10/08 14:02:03;;;;;;;9.88;6.85;;;;;;;;;;5041099;28;20188;-74
2021/10/08 14:07:19;;;;;;;10.35;7.22;;;;;;;;;;5045977;28;20188;-75
2021/10/08 14:12:30;;;;;;;9.35;7.47;;;;;;;;;;5042081;28;20552;-75
2021/10/08 14:14:56;;;;;;;7.95;6.68;;;;;;;;;;5033583;28;20201;-75
2021/10/08 14:17:22;;;;;;;10.68;7.80;;;;;;;;;;5037269;28;20627;-75
2021/10/08 14:19:47;;;;;;;7.88;7.07;;;;;;;;;;5025732;28;20188;-74
2021/10/08 14:22:12;;;;;;;8.65;6.07;;;;;;;;;;5035856;28;20625;-76
2021/10/08 14:24:38;;;;;;;8.45;6.30;;;;;;;;;;5025433;28;20668;-75
2021/10/08 14:27:03;;;;;;;7.85;5.60;;;;;;;;;;5032342;28;20281;-75
2021/10/08 14:29:28;;;;;;;6.63;5.93;;;;;;;;;;5033789;28;20208;-74
2021/10/08 14:31:54;;;;;;;8.60;6.68;;;;;;;;;;5035859;28;20539;-74
2021/10/08 14:34:19;;;;;;;11.18;6.43;;;;;;;;;;5029078;28;20657;-74
2021/10/08 14:36:45;;;;;;;6.10;5.38;;;;;;;;;;5040568;28;20185;-74
2021/10/08 14:39:10;;;;;;;6.82;5.82;;;;;;;;;;5041877;28;20674;-74
2021/10/08 14:41:35;;;;;;;7.90;5.78;;;;;;;;;;5032501;28;20208;-75